Time;durP1;ratioP1;P1;durP2;ratioP2;P2;SDS_P1;SDS_P2;PMS_P1;PMS_P2;Temp;Humidity;BMP_temperature;BMP_pressure;BME280_temperature;BME280_humidity;BME280_pressure;Samples;Min_cycle;Max_cycle;Signal;HPM_P1;HPM_P2
2022/07/24 00:01:44;;;;;;;2.78;1.45;;;;;;;18.57;78.71;99945.81;10495640;28;20040;-68
2022/07/24 00:06:45;;;;;;;2.60;1.52;;;;;;;18.14;79.11;99877.78;10495112;28;20048;-69
2022/07/24 00:11:46;;;;;;;6.20;1.80;;;;;;;18.61;79.16;99937.06;10495346;28;20115;-69
2022/07/24 00:16:47;;;;;;;5.32;1.77;;;;;;;18.62;79.18;99933.31;10483350;28;20044;-68
2022/07/24 00:21:48;;;;;;;4.07;1.65;;;;;;;18.23;79.24;99870.22;10502873;28;20043;-68
2022/07/24 00:26:49;;;;;;;3.58;1.50;;;;;;;18.55;79.70;99924.56;10503415;28;20480;-68
2022/07/24 00:31:50;;;;;;;2.60;1.45;;;;;;;18.37;79.79;99893.16;10485187;28;20484;-69
2022/07/24 00:36:51;;;;;;;3.20;1.83;;;;;;;18.34;80.38;99903.56;10503463;28;20484;-68
2022/07/24 00:41:54;;;;;;;6.55;2.35;;;;;;;18.29;80.73;99893.50;10502234;28;20129;-68
2022/07/24 00:46:55;;;;;;;4.18;1.67;;;;;;;18.29;80.86;99901.56;10501821;28;20045;-68
2022/07/24 00:51:56;;;;;;;4.68;1.77;;;;;;;18.23;81.25;99889.84;10501524;28;20060;-68
2022/07/24 00:56:57;;;;;;;5.47;2.28;;;;;;;18.22;81.18;99880.16;10502535;28;20045;-69
2022/07/24 01:01:58;;;;;;;6.45;2.42;;;;;;;18.33;80.96;99897.34;10501574;28;20044;-69
2022/07/24 01:06:59;;;;;;;5.90;2.38;;;;;;;18.23;81.54;99892.53;10501199;28;20033;-69
2022/07/24 01:12:00;;;;;;;9.20;2.60;;;;;;;18.19;81.62;99904.81;10501093;28;20051;-69
2022/07/24 01:17:01;;;;;;;9.95;2.70;;;;;;;18.09;82.58;99912.56;10500850;28;20036;-69
2022/07/24 01:22:02;;;;;;;12.02;3.00;;;;;;;18.02;82.70;99918.06;10501271;28;20052;-69
2022/07/24 01:27:03;;;;;;;9.73;2.67;;;;;;;17.89;83.32;99922.75;10499551;28;20037;-68
2022/07/24 01:32:05;;;;;;;18.35;2.97;;;;;;;17.69;83.99;99918.44;10500642;28;20064;-69
2022/07/24 01:37:06;;;;;;;15.43;2.95;;;;;;;17.65;84.36;99933.38;10500871;28;20048;-69
2022/07/24 01:42:07;;;;;;;29.05;4.13;;;;;;;17.58;84.55;99948.72;10500963;28;20044;-69
2022/07/24 01:47:08;;;;;;;17.60;2.72;;;;;;;17.46;85.06;99955.88;10499866;28;20111;-69
2022/07/24 01:52:09;;;;;;;44.78;4.78;;;;;;;17.17;85.72;99931.41;10499548;28;20056;-69
2022/07/24 01:57:10;;;;;;;11.25;3.10;;;;;;;17.31;85.95;99954.38;10499734;28;20528;-69
2022/07/24 02:02:11;;;;;;;17.98;3.33;;;;;;;17.30;86.42;99954.59;10498960;28;20064;-69
2022/07/24 02:07:12;;;;;;;28.08;3.85;;;;;;;17.43;86.38;99959.00;10499116;28;20044;-69
2022/07/24 02:12:13;;;;;;;19.60;3.40;;;;;;;17.53;86.00;99944.03;10499079;28;20062;-69
2022/07/24 02:17:13;;;;;;;29.30;3.80;;;;;;;17.68;86.44;99949.03;10499264;28;20036;-69
2022/07/24 02:22:14;;;;;;;38.10;3.90;;;;;;;17.24;86.00;99862.34;10498819;28;20037;-69
2022/07/24 02:27:15;;;;;;;3.55;2.72;;;;;;;17.81;85.56;99933.84;10498617;28;20052;-69
2022/07/24 02:32:16;;;;;;;10.10;3.10;;;;;;;18.05;85.56;99943.66;10480414;28;20404;-69
2022/07/24 02:37:17;;;;;;;7.00;2.85;;;;;;;18.31;84.75;99947.03;10497422;28;20049;-69
2022/07/24 02:42:17;;;;;;;5.65;2.83;;;;;;;18.46;84.03;99934.00;10498075;28;20032;-69
2022/07/24 02:47:18;;;;;;;6.05;2.72;;;;;;;18.46;82.84;99872.97;10497436;28;20067;-69
2022/07/24 02:52:19;;;;;;;6.18;2.90;;;;;;;19.00;82.71;99947.47;10497753;28;20092;-69
2022/07/24 02:57:20;;;;;;;4.75;2.97;;;;;;;19.01;82.62;99943.72;10496637;28;20385;-69
2022/07/24 03:02:21;;;;;;;5.35;3.03;;;;;;;18.97;82.42;99937.16;10497102;28;20491;-69
2022/07/24 03:07:21;;;;;;;10.18;3.03;;;;;;;18.97;82.60;99937.97;10495471;28;20059;-70
2022/07/24 03:12:22;;;;;;;5.20;2.90;;;;;;;18.51;82.52;99858.78;10496874;28;20056;-68
2022/07/24 03:17:23;;;;;;;6.93;2.88;;;;;;;18.83;82.34;99917.72;10496791;28;20044;-69
2022/07/24 03:22:24;;;;;;;5.97;3.35;;;;;;;19.04;81.96;99945.94;10496571;28;20648;-68
2022/07/24 03:27:25;;;;;;;4.80;3.03;;;;;;;19.08;81.82;99953.28;10496842;28;20596;-69
2022/07/24 03:32:26;;;;;;;7.75;3.00;;;;;;;19.19;81.68;99954.38;10495521;28;20044;-69
2022/07/24 03:37:27;;;;;;;6.50;3.08;;;;;;;19.31;81.15;99939.03;10496122;28;20488;-69
2022/07/24 03:42:28;;;;;;;4.20;2.83;;;;;;;19.47;80.59;99925.88;10495656;28;20048;-69
2022/07/24 03:47:28;;;;;;;5.30;2.97;;;;;;;18.86;79.80;99812.28;10496010;28;20032;-69
2022/07/24 03:52:29;;;;;;;4.90;3.50;;;;;;;19.83;79.40;99957.13;10495317;28;20450;-69
2022/07/24 03:57:30;;;;;;;7.07;3.72;;;;;;;20.00;78.89;99971.50;10495109;28;20106;-69
2022/07/24 04:02:31;;;;;;;5.85;3.30;;;;;;;20.24;78.16;99968.72;10495634;28;20036;-69
2022/07/24 04:07:32;;;;;;;5.97;2.88;;;;;;;20.49;77.38;99963.81;10495716;28;20055;-69
2022/07/24 04:12:33;;;;;;;4.50;3.40;;;;;;;20.73;75.99;99966.38;10482675;28;20049;-69
2022/07/24 04:17:37;;;;;;;6.45;2.90;;;;;;;20.77;75.20;99948.66;10476888;28;20457;-69
2022/07/24 04:22:39;;;;;;;4.57;2.97;;;;;;;21.17;74.33;99980.88;10494446;28;20411;-69
2022/07/24 04:27:40;;;;;;;15.10;3.08;;;;;;;21.01;73.76;99902.59;10494775;28;20451;-69
2022/07/24 04:32:40;;;;;;;4.68;2.67;;;;;;;21.42;73.14;99956.19;10494109;28;20515;-70
2022/07/24 04:37:41;;;;;;;5.28;2.90;;;;;;;21.68;71.95;99958.41;10495585;28;20032;-69
2022/07/24 04:42:42;;;;;;;15.65;3.00;;;;;;;21.62;71.07;99941.28;10493934;28;20040;-69
2022/07/24 04:47:43;;;;;;;5.55;2.53;;;;;;;21.65;71.29;99959.72;10476554;28;20119;-69
2022/07/24 04:52:44;;;;;;;3.17;2.22;;;;;;;21.39;71.15;99931.53;10494610;28;20060;-70
2022/07/24 04:57:44;;;;;;;5.00;2.40;;;;;;;21.55;71.21;99967.69;10495146;28;20060;-69
2022/07/24 05:02:45;;;;;;;4.35;2.30;;;;;;;21.28;71.30;99949.44;10497998;28;20523;-69
2022/07/24 05:07:46;;;;;;;4.65;2.60;;;;;;;21.29;71.68;99969.19;10501338;28;20040;-69
2022/07/24 05:12:47;;;;;;;4.40;2.35;;;;;;;21.33;71.03;99957.63;10501882;28;20041;-69
2022/07/24 05:17:47;;;;;;;3.70;2.30;;;;;;;21.37;70.44;99964.19;10501293;28;20040;-69
2022/07/24 05:22:48;;;;;;;5.97;2.47;;;;;;;21.48;70.10;99953.53;10482933;28;20045;-69
2022/07/24 05:27:49;;;;;;;10.18;2.75;;;;;;;21.60;69.73;99946.97;10490555;28;20040;-70
2022/07/24 05:32:50;;;;;;;3.97;2.72;;;;;;;21.72;69.22;99954.09;10472265;28;20057;-71
2022/07/24 05:37:51;;;;;;;9.90;2.75;;;;;;;21.73;68.95;99955.75;10480344;28;20448;-68
2022/07/24 05:42:52;;;;;;;3.63;2.65;;;;;;;21.50;68.55;99879.25;10458605;28;20424;-69
2022/07/24 05:47:52;;;;;;;4.32;2.65;;;;;;;22.01;68.12;99928.50;10458444;28;20068;-70
2022/07/24 05:52:53;;;;;;;5.93;2.90;;;;;;;22.06;67.76;99933.16;10458216;28;20057;-68
2022/07/24 05:57:55;;;;;;;10.88;3.10;;;;;;;21.74;68.26;99906.84;10459190;28;20051;-69
2022/07/24 06:02:56;;;;;;;5.85;2.78;;;;;;;21.54;68.59;99876.84;10458598;28;20044;-69
2022/07/24 06:07:57;;;;;;;7.85;2.92;;;;;;;21.81;68.90;99925.59;10458633;28;20044;-71
2022/07/24 06:12:58;;;;;;;5.63;2.60;;;;;;;21.89;68.84;99942.16;10479590;28;20416;-70
2022/07/24 06:17:59;;;;;;;6.40;2.88;;;;;;;21.92;67.66;99910.28;10468049;28;20045;-70
2022/07/24 06:23:00;;;;;;;8.32;2.83;;;;;;;21.93;66.66;99845.16;10457404;28;20105;-71
2022/07/24 06:28:00;;;;;;;3.75;2.72;;;;;;;22.58;65.66;99856.81;10455951;28;20067;-70
2022/07/24 06:33:01;;;;;;;5.22;2.75;;;;;;;23.39;63.72;99912.63;10456933;28;20480;-69
2022/07/24 06:38:02;;;;;;;8.73;2.72;;;;;;;23.61;63.10;99904.34;10457354;28;20135;-71
2022/07/24 06:43:03;;;;;;;4.00;2.47;;;;;;;23.54;62.43;99891.03;10456703;28;20037;-71
2022/07/24 06:48:04;;;;;;;4.18;2.58;;;;;;;23.40;62.49;99843.81;10456355;28;20048;-70
2022/07/24 06:53:05;;;;;;;4.05;2.45;;;;;;;23.97;61.25;99899.91;10456003;28;20504;-69
2022/07/24 06:58:06;;;;;;;8.48;2.88;;;;;;;24.43;60.38;99897.28;10455721;28;20036;-72
2022/07/24 07:03:06;;;;;;;21.48;3.88;;;;;;;24.68;59.67;99906.50;10438273;28;20051;-70
2022/07/24 07:08:07;;;;;;;2.78;1.90;;;;;;;24.58;58.43;99894.56;10455842;28;20033;-70
2022/07/24 07:13:08;;;;;;;7.30;2.30;;;;;;;24.89;57.77;99864.69;10456361;28;20052;-69
2022/07/24 07:18:09;;;;;;;5.43;2.88;;;;;;;25.16;56.62;99825.47;10464764;28;20044;-72
2022/07/24 07:23:10;;;;;;;2.97;1.90;;;;;;;25.65;55.04;99876.41;10468937;28;20040;-69
2022/07/24 07:28:10;;;;;;;8.50;2.10;;;;;;;25.70;55.04;99860.09;10496475;28;20558;-71
2022/07/24 07:33:11;;;;;;;3.58;1.83;;;;;;;25.92;54.63;99849.63;10478282;28;20067;-68
2022/07/24 07:38:12;;;;;;;4.30;1.80;;;;;;;26.05;52.75;99836.47;10477676;28;20048;-69
2022/07/24 07:43:13;;;;;;;4.88;1.73;;;;;;;25.68;53.10;99838.59;10495891;28;20055;-70
2022/07/24 07:48:14;;;;;;;5.90;2.50;;;;;;;25.43;52.21;99760.69;10490555;28;20085;-73
2022/07/24 07:53:14;;;;;;;12.90;2.10;;;;;;;25.37;51.10;99696.56;10490919;28;20048;-70
2022/07/24 07:58:16;;;;;;;6.15;2.55;;;;;;;26.31;51.29;99823.50;10490865;28;20071;-68
2022/07/24 08:03:17;;;;;;;2.42;1.70;;;;;;;26.50;49.35;99815.44;10490137;28;20074;-70
2022/07/24 08:08:17;;;;;;;6.28;1.80;;;;;;;26.36;49.28;99804.41;10491097;28;20373;-69
2022/07/24 08:13:19;;;;;;;3.55;1.80;;;;;;;26.17;49.89;99807.00;10486861;28;20044;-71
2022/07/24 08:18:20;;;;;;;16.70;2.72;;;;;;;26.16;50.18;99814.34;10472031;28;20495;-70
2022/07/24 08:23:20;;;;;;;2.72;1.67;;;;;;;26.62;48.96;99807.72;10486572;28;20173;-69
2022/07/24 08:28:22;;;;;;;8.88;2.10;;;;;;;26.29;48.59;99803.91;10490311;28;20040;-71
2022/07/24 09:03:44;;;;;;;15.80;9.90;;;;;;;25.67;51.69;99743.69;10472317;27;20824;-68
2022/07/24 09:09:02;;;;;;;6.50;4.20;;;;;;;26.27;50.56;99768.81;10467936;28;20055;-67
2022/07/24 09:19:22;;;;;;;4.70;1.70;;;;;;;27.40;46.70;99756.66;10465751;28;20488;-69
2022/07/24 09:24:23;;;;;;;2.55;1.40;;;;;;;27.43;45.58;99747.91;10462664;28;20029;-77
2022/07/24 09:29:25;;;;;;;3.95;1.70;;;;;;;26.74;45.52;99679.25;10473505;28;20095;-71
2022/07/24 09:34:29;;;;;;;5.07;2.15;;;;;;;27.07;44.92;99711.00;10470278;28;20040;-70
2022/07/24 09:39:34;;;;;;;2.95;1.58;;;;;;;27.86;43.02;99712.38;10478032;28;20494;-68
2022/07/24 09:44:35;;;;;;;2.13;1.30;;;;;;;27.80;42.72;99732.66;10489481;28;20068;-69
2022/07/24 09:49:38;;;;;;;8.50;1.80;;;;;;;27.06;42.35;99698.47;10453198;28;20044;-69
2022/07/24 09:54:44;;;;;;;13.40;2.40;;;;;;;27.31;42.45;99652.88;10474597;28;20049;-67
2022/07/24 09:59:48;;;;;;;4.90;1.65;;;;;;;27.81;41.97;99653.19;10445507;28;20311;-67
2022/07/24 10:04:50;;;;;;;5.05;1.83;;;;;;;28.41;41.66;99709.78;10471719;28;20139;-68
2022/07/24 10:09:54;;;;;;;2.65;1.70;;;;;;;28.82;40.52;99682.44;10445993;28;20041;-68
2022/07/24 10:14:57;;;;;;;3.17;1.77;;;;;;;29.27;39.50;99698.19;10418194;28;20048;-69
2022/07/24 10:20:03;;;;;;;2.10;1.50;;;;;;;28.68;39.47;99703.50;10418791;28;20482;-70
2022/07/24 10:25:07;;;;;;;13.98;2.05;;;;;;;28.39;40.16;99695.56;10419149;28;20413;-69
2022/07/24 10:30:10;;;;;;;13.15;2.30;;;;;;;28.44;39.88;99703.69;10436625;28;20447;-71
2022/07/24 10:35:19;;;;;;;3.10;1.70;;;;;;;28.04;40.05;99702.50;10432920;28;20044;-71
2022/07/24 10:40:45;;;;;;;3.08;1.60;;;;;;;28.53;39.77;99692.88;10432620;28;20063;-72
2022/07/24 10:46:06;;;;;;;1.90;1.40;;;;;;;28.83;39.00;99688.72;10437050;28;20401;-70
2022/07/24 10:51:11;;;;;;;1.77;1.40;;;;;;;28.97;38.75;99678.56;10434234;28;20192;-70
2022/07/24 10:56:24;;;;;;;2.33;1.70;;;;;;;28.35;38.87;99618.06;10436011;28;20029;-69
2022/07/24 11:01:28;;;;;;;1.70;1.08;;;;;;;28.05;38.05;99677.63;10437269;28;20056;-69
2022/07/24 11:06:45;;;;;;;4.15;1.17;;;;;;;27.00;37.90;99524.38;10429970;28;20061;-67
2022/07/24 11:11:51;;;;;;;3.63;1.27;;;;;;;27.73;37.49;99599.28;10439565;28;20131;-70
2022/07/24 11:35:35;;;;;;;3.35;1.17;;;;;;;28.91;37.05;99614.19;10485412;28;20932;-68
2022/07/24 11:46:36;;;;;;;1.70;1.08;;;;;;;28.70;35.54;99596.63;10569097;27;20935;-68
2022/07/24 11:51:48;;;;;;;4.63;1.00;;;;;;;28.68;34.55;99632.44;10567737;28;20043;-72
2022/07/24 11:56:50;;;;;;;1.40;0.80;;;;;;;28.87;35.21;99602.28;10566591;28;20059;-68
2022/07/24 12:01:54;;;;;;;2.28;0.90;;;;;;;29.32;34.78;99624.22;10568539;28;20048;-71
2022/07/24 12:06:55;;;;;;;6.63;1.10;;;;;;;28.82;35.50;99599.63;10571705;28;20039;-70
2022/07/24 12:11:56;;;;;;;6.97;1.30;;;;;;;28.52;36.15;99629.25;10573988;28;20051;-67
2022/07/24 12:16:58;;;;;;;3.60;1.20;;;;;;;28.34;36.73;99617.28;10572900;28;20551;-68
2022/07/24 12:21:59;;;;;;;4.55;1.30;;;;;;;28.79;37.60;99622.94;10572992;28;20407;-70
2022/07/24 12:26:59;;;;;;;2.15;1.08;;;;;;;28.09;38.97;99553.06;10572329;28;20046;-69
2022/07/24 12:32:19;;;;;;;4.63;1.30;;;;;;;28.45;39.62;99628.84;10559268;28;20044;-70
2022/07/24 12:37:22;;;;;;;5.22;1.40;;;;;;;28.47;39.18;99632.06;10530506;28;20058;-67
2022/07/24 12:42:29;;;;;;;;;;;;;;;28.89;39.34;99638.28;10529948;28;20151;-73
2022/07/24 12:47:30;;;;;;;5.68;1.35;;;;;;;28.41;39.21;99579.44;10528826;28;19966;-69
2022/07/24 12:52:31;;;;;;;4.53;1.42;;;;;;;28.84;38.75;99625.56;10530181;28;20496;-71
2022/07/24 12:57:33;;;;;;;10.13;1.38;;;;;;;28.87;38.33;99646.81;10499384;28;20036;-70
2022/07/24 13:02:34;;;;;;;3.13;1.30;;;;;;;28.29;38.69;99564.66;10496334;28;20102;-73
2022/07/24 13:07:35;;;;;;;2.03;1.00;;;;;;;28.65;37.79;99633.88;10491886;28;20041;-70
2022/07/24 13:12:37;;;;;;;4.47;1.20;;;;;;;28.61;38.03;99632.06;10497090;28;20086;-71
2022/07/24 13:17:40;;;;;;;1.45;1.05;;;;;;;28.28;36.99;99606.75;10493819;28;20496;-69
2022/07/24 13:43:33;;;;;;;4.07;1.08;;;;;;;27.88;38.87;99620.06;10483530;27;20811;-71
2022/07/24 13:48:34;;;;;;;2.72;1.00;;;;;;;27.62;38.72;99560.47;10486415;28;20028;-71
2022/07/24 14:02:14;;;;;;;6.05;1.20;;;;;;;28.00;38.54;99631.31;10489595;28;20478;-69
2022/07/24 14:07:15;;;;;;;5.93;1.20;;;;;;;28.42;38.92;99630.25;10488339;28;20079;-69
2022/07/24 14:12:16;;;;;;;2.22;1.23;;;;;;;28.56;38.77;99630.25;10490353;28;20445;-70
2022/07/24 14:17:17;;;;;;;7.80;1.85;;;;;;;27.57;39.96;99538.72;10501877;28;20039;-71
2022/07/24 14:22:18;;;;;;;2.53;1.38;;;;;;;27.87;40.55;99632.09;10489171;28;20045;-70
2022/07/24 14:27:18;;;;;;;7.18;1.55;;;;;;;28.01;41.00;99632.13;10489974;28;20119;-70
2022/07/24 14:32:19;;;;;;;8.73;1.30;;;;;;;27.66;41.57;99651.50;10473665;28;20120;-68
2022/07/24 14:37:20;;;;;;;19.17;2.08;;;;;;;27.33;42.34;99660.78;10448943;28;20515;-70
2022/07/24 14:42:21;;;;;;;4.68;1.58;;;;;;;27.01;43.41;99670.47;10448341;28;20429;-70
2022/07/24 14:47:22;;;;;;;3.47;1.48;;;;;;;27.04;42.74;99651.63;10446608;28;20045;-70
2022/07/24 14:52:23;;;;;;;7.00;1.83;;;;;;;27.45;43.13;99672.84;10447138;28;20033;-71
2022/07/24 14:57:24;;;;;;;4.82;1.40;;;;;;;27.36;43.31;99663.72;10463183;28;20088;-68
2022/07/24 15:02:25;;;;;;;3.67;1.80;;;;;;;26.72;43.16;99606.00;10443849;28;20589;-68
2022/07/24 15:07:26;;;;;;;5.82;1.90;;;;;;;26.87;43.93;99681.28;10446205;28;20064;-69
2022/07/24 15:12:27;;;;;;;5.47;1.80;;;;;;;26.52;44.72;99696.94;10399269;28;20409;-66
2022/07/24 15:17:28;;;;;;;5.75;1.83;;;;;;;26.06;45.18;99680.25;10413613;28;20092;-67
2022/07/24 15:22:28;;;;;;;1.70;1.20;;;;;;;25.83;45.51;99703.59;10378306;28;20107;-68
2022/07/24 15:27:29;;;;;;;5.22;1.70;;;;;;;25.34;46.04;99683.53;10379941;28;20038;-66
2022/07/24 15:32:30;;;;;;;8.00;1.60;;;;;;;25.30;46.71;99720.50;10418658;28;20087;-70
2022/07/24 15:37:31;;;;;;;4.20;1.52;;;;;;;24.94;47.31;99688.03;10418002;28;20492;-71
2022/07/24 15:42:32;;;;;;;6.18;1.73;;;;;;;24.95;47.86;99718.72;10418512;28;20042;-71
2022/07/24 15:47:32;;;;;;;2.72;1.67;;;;;;;24.58;48.39;99688.19;10416872;28;20413;-72
2022/07/24 15:52:33;;;;;;;4.18;1.60;;;;;;;24.66;48.80;99727.53;10418092;28;20045;-71
2022/07/24 15:57:34;;;;;;;4.53;1.42;;;;;;;24.36;49.43;99706.69;10416603;28;20053;-71
2022/07/24 16:02:36;;;;;;;2.30;1.23;;;;;;;24.24;49.80;99711.59;10417300;28;20045;-71
2022/07/24 16:07:37;;;;;;;6.10;2.17;;;;;;;24.25;50.46;99735.72;10417019;28;20040;-71
2022/07/24 16:12:38;;;;;;;7.82;1.92;;;;;;;24.18;50.57;99728.97;10416798;28;20139;-71
2022/07/24 16:17:39;;;;;;;6.43;2.03;;;;;;;24.01;51.00;99735.47;10417267;28;20124;-71
2022/07/24 16:22:41;;;;;;;2.40;1.70;;;;;;;24.04;51.11;99742.25;10414955;28;20041;-74
2022/07/24 16:27:41;;;;;;;3.38;1.55;;;;;;;23.96;51.24;99759.06;10329611;28;20613;-70
2022/07/24 16:32:42;;;;;;;3.78;1.50;;;;;;;23.85;51.48;99750.13;10291700;28;20043;-72
2022/07/24 16:37:43;;;;;;;4.90;1.50;;;;;;;23.74;51.78;99757.44;10293506;28;20514;-70
2022/07/24 16:42:44;;;;;;;4.30;1.92;;;;;;;23.18;52.17;99678.69;10292264;28;20454;-69
2022/07/24 16:47:45;;;;;;;5.47;1.98;;;;;;;23.59;52.74;99760.09;10291106;28;20070;-72
2022/07/24 16:52:46;;;;;;;3.60;1.83;;;;;;;23.48;53.01;99748.41;10292143;28;20046;-72
2022/07/24 16:57:47;;;;;;;3.47;1.60;;;;;;;23.38;52.80;99751.09;10292829;28;20549;-70
2022/07/24 17:02:48;;;;;;;7.80;1.73;;;;;;;23.36;53.11;99755.97;10291936;28;20602;-71
2022/07/24 17:07:49;;;;;;;3.72;1.50;;;;;;;23.10;53.20;99739.63;10292535;28;20142;-69
2022/07/24 17:12:50;;;;;;;6.43;1.65;;;;;;;23.09;53.44;99751.53;10292249;28;20046;-70
2022/07/24 17:17:57;;;;;;;2.83;1.50;;;;;;;23.02;53.49;99751.78;10292281;28;20082;-73
2022/07/24 17:22:59;;;;;;;7.32;1.58;;;;;;;22.55;53.69;99692.22;10253644;28;20047;-70
2022/07/24 17:28:02;;;;;;;3.50;1.33;;;;;;;22.92;53.79;99761.75;10252585;28;20476;-72
2022/07/24 17:33:03;;;;;;;10.07;1.60;;;;;;;23.00;54.33;99777.50;10299687;28;20050;-68
2022/07/24 17:38:04;;;;;;;14.57;2.30;;;;;;;22.79;55.72;99757.59;10299404;28;20050;-69
2022/07/24 17:43:05;;;;;;;4.38;1.75;;;;;;;22.46;56.31;99721.69;10291938;28;20047;-70
2022/07/24 17:48:07;;;;;;;10.55;2.15;;;;;;;22.48;57.22;99754.72;10321497;28;20039;-71
2022/07/24 17:53:07;;;;;;;15.30;2.08;;;;;;;21.80;57.61;99675.19;10290774;28;20050;-71
2022/07/24 17:58:08;;;;;;;7.60;2.20;;;;;;;22.23;58.19;99763.47;10290888;28;20070;-71
2022/07/24 18:03:10;;;;;;;21.85;2.50;;;;;;;22.14;58.91;99748.78;10291384;28;20047;-71
2022/07/24 18:08:11;;;;;;;8.32;2.10;;;;;;;22.06;58.31;99746.53;10291820;28;20043;-73
2022/07/24 18:13:11;;;;;;;12.82;2.35;;;;;;;21.89;58.25;99728.53;10292478;28;20399;-66
2022/07/24 18:18:12;;;;;;;22.23;3.20;;;;;;;21.43;58.62;99660.56;10293876;28;20090;-71
2022/07/24 18:23:13;;;;;;;8.98;2.08;;;;;;;21.73;59.21;99713.28;10302486;28;20046;-71
2022/07/24 18:28:14;;;;;;;9.85;2.60;;;;;;;21.59;59.62;99696.66;10348704;28;20074;-70
2022/07/24 18:33:14;;;;;;;7.28;2.47;;;;;;;21.68;60.48;99740.25;10349374;28;20050;-70
2022/07/24 18:38:15;;;;;;;8.95;2.60;;;;;;;21.52;60.81;99750.09;10347010;28;20166;-70
2022/07/24 18:43:16;;;;;;;5.90;2.03;;;;;;;21.35;61.73;99749.34;10349364;28;20034;-70
2022/07/24 18:48:17;;;;;;;28.33;2.60;;;;;;;21.18;61.90;99762.94;10354036;28;20078;-71
2022/07/24 18:53:18;;;;;;;7.90;2.30;;;;;;;20.94;62.81;99757.78;10352471;28;20046;-70
2022/07/24 18:58:19;;;;;;;7.82;2.28;;;;;;;20.95;63.24;99772.09;10355737;28;20543;-71
2022/07/24 19:03:20;;;;;;;6.85;2.97;;;;;;;20.38;63.71;99713.81;10320061;28;20050;-71
2022/07/24 19:08:21;;;;;;;6.97;3.30;;;;;;;20.27;63.88;99712.00;10341473;28;20050;-70
2022/07/24 19:13:22;;;;;;;7.05;3.30;;;;;;;20.69;63.88;99796.03;10351735;28;20045;-70
2022/07/24 19:18:22;;;;;;;6.82;2.97;;;;;;;20.30;64.05;99742.00;10356797;28;20037;-72
2022/07/24 19:23:23;;;;;;;16.42;8.57;;;;;;;20.69;63.61;99801.44;10313374;28;20054;-72
2022/07/24 19:28:24;;;;;;;24.88;10.70;;;;;;;20.09;64.00;99717.66;10336275;28;20078;-73
2022/07/24 19:33:25;;;;;;;27.88;11.68;;;;;;;20.54;64.24;99816.56;10337416;28;20494;-71
2022/07/24 19:38:26;;;;;;;19.85;9.30;;;;;;;20.49;65.44;99831.59;10336068;28;20158;-72
2022/07/24 19:43:29;;;;;;;12.98;7.35;;;;;;;20.22;65.73;99814.41;10336294;28;20038;-70
2022/07/24 19:48:30;;;;;;;13.83;6.50;;;;;;;19.74;66.30;99759.13;10367256;28;20050;-70
2022/07/24 19:53:30;;;;;;;23.58;12.77;;;;;;;20.06;66.92;99833.03;10336323;28;20096;-73
2022/07/24 19:58:31;;;;;;;13.48;7.85;;;;;;;20.07;66.95;99828.44;10335912;28;20054;-72
2022/07/24 20:03:32;;;;;;;22.20;6.53;;;;;;;19.60;67.30;99754.03;10336103;28;20062;-71
2022/07/24 20:08:35;;;;;;;11.90;5.13;;;;;;;19.91;67.37;99803.09;10334742;28;20046;-70
2022/07/24 20:13:37;;;;;;;15.30;4.40;;;;;;;19.99;67.37;99808.13;10335876;28;20092;-73
2022/07/24 20:18:38;;;;;;;11.30;3.80;;;;;;;20.08;67.15;99816.63;10335763;28;20137;-71
2022/07/24 20:23:39;;;;;;;11.50;3.38;;;;;;;20.19;67.28;99823.00;10334994;28;20042;-71
2022/07/24 20:28:39;;;;;;;7.50;2.90;;;;;;;20.24;67.86;99829.28;10334089;28;20042;-71
2022/07/24 20:33:41;;;;;;;6.10;3.22;;;;;;;19.78;68.10;99757.59;10334042;28;20096;-71
2022/07/24 20:38:42;;;;;;;7.70;3.05;;;;;;;20.05;68.61;99817.13;10335349;28;20180;-71
2022/07/24 20:43:43;;;;;;;8.38;3.17;;;;;;;20.01;69.03;99811.38;10334110;28;20038;-71
2022/07/24 20:48:44;;;;;;;7.00;3.28;;;;;;;19.98;69.22;99814.56;10333404;28;20407;-71
2022/07/24 20:53:45;;;;;;;4.05;2.90;;;;;;;19.94;69.24;99802.63;10333416;28;20041;-71
2022/07/24 20:58:46;;;;;;;4.93;2.88;;;;;;;20.06;69.53;99824.13;10332977;28;20053;-71
2022/07/24 21:03:47;;;;;;;6.15;3.20;;;;;;;19.64;69.49;99762.44;10321746;28;20053;-71
2022/07/24 21:08:47;;;;;;;10.55;3.38;;;;;;;19.90;69.85;99804.19;10298113;28;20062;-71
2022/07/24 21:13:48;;;;;;;6.30;3.25;;;;;;;19.94;70.15;99804.50;10292493;28;20495;-71
2022/07/24 21:18:49;;;;;;;13.43;3.78;;;;;;;19.83;70.49;99798.09;10292422;28;20043;-71
2022/07/24 21:23:50;;;;;;;5.38;3.22;;;;;;;19.65;70.70;99763.28;10291834;28;20049;-71
2022/07/24 21:28:51;;;;;;;7.60;3.42;;;;;;;19.82;70.68;99777.59;10291831;28;20127;-71
2022/07/24 21:33:52;;;;;;;10.65;3.65;;;;;;;19.89;70.30;99777.44;10292278;28;20097;-71
2022/07/24 21:38:53;;;;;;;10.55;3.42;;;;;;;20.02;70.31;99777.16;10292621;28;20038;-71
2022/07/24 21:43:54;;;;;;;11.23;3.53;;;;;;;19.09;70.54;99621.13;10306348;28;20101;-71
2022/07/24 21:48:55;;;;;;;9.27;3.30;;;;;;;19.97;70.70;99767.09;10291747;28;20047;-70
2022/07/24 21:53:55;;;;;;;5.72;3.33;;;;;;;19.53;70.87;99702.19;10291541;28;20078;-71
2022/07/24 21:58:56;;;;;;;4.10;3.20;;;;;;;19.88;71.74;99760.47;10322305;28;20066;-71
2022/07/24 22:03:57;;;;;;;6.70;3.97;;;;;;;19.92;71.65;99764.28;10291895;28;20047;-71
2022/07/24 22:08:58;;;;;;;6.07;3.58;;;;;;;19.85;71.83;99769.03;10292365;28;20054;-71
2022/07/24 22:13:59;;;;;;;4.10;3.20;;;;;;;19.86;72.42;99773.34;10291374;28;20043;-71
2022/07/24 22:18:59;;;;;;;7.55;3.70;;;;;;;19.30;72.53;99697.72;10291393;28;20494;-71
2022/07/24 22:24:00;;;;;;;9.25;3.42;;;;;;;19.83;72.77;99771.16;10298941;28;20086;-71
2022/07/24 22:29:01;;;;;;;4.05;2.70;;;;;;;19.42;72.59;99713.81;10298990;28;20555;-70
2022/07/24 22:34:02;;;;;;;5.20;3.05;;;;;;;19.84;72.79;99775.50;10356324;28;20052;-71
2022/07/24 22:39:05;;;;;;;4.55;3.20;;;;;;;19.92;73.39;99772.38;10377900;28;20053;-71
2022/07/24 22:44:06;;;;;;;7.43;3.40;;;;;;;19.70;73.33;99739.94;10379163;28;20038;-71
2022/07/24 22:49:07;;;;;;;6.82;3.35;;;;;;;19.87;73.25;99772.31;10379111;28;20045;-71
2022/07/24 22:54:08;;;;;;;7.05;3.60;;;;;;;19.98;73.17;99784.91;10379125;28;20045;-71
2022/07/24 22:59:09;;;;;;;7.15;3.47;;;;;;;19.94;73.44;99783.75;10379167;28;20065;-71
2022/07/24 23:04:10;;;;;;;5.47;3.88;;;;;;;19.93;73.44;99798.31;10378461;28;20383;-71
2022/07/24 23:09:11;;;;;;;5.28;3.30;;;;;;;19.93;73.71;99776.72;10378595;28;20045;-71
2022/07/24 23:14:12;;;;;;;7.72;3.25;;;;;;;19.95;73.83;99787.25;10378320;28;20398;-71
2022/07/24 23:19:12;;;;;;;7.07;3.22;;;;;;;19.76;74.11;99760.53;10378022;28;20037;-71
2022/07/24 23:24:13;;;;;;;4.70;3.53;;;;;;;19.95;74.34;99785.41;10377981;28;20061;-71
2022/07/24 23:29:14;;;;;;;5.85;3.47;;;;;;;19.98;74.13;99770.59;10378522;28;20486;-71
2022/07/24 23:34:16;;;;;;;8.52;3.60;;;;;;;20.05;74.36;99773.97;10376892;28;20038;-71
2022/07/24 23:39:16;;;;;;;5.03;3.17;;;;;;;19.95;74.29;99766.53;10377845;28;20379;-71
2022/07/24 23:44:17;;;;;;;6.32;3.10;;;;;;;19.98;74.40;99757.97;10376739;28;20042;-71
2022/07/24 23:49:18;;;;;;;5.53;3.20;;;;;;;20.13;74.50;99772.72;10376715;28;20060;-71
2022/07/24 23:54:19;;;;;;;8.00;3.17;;;;;;;20.04;74.27;99767.75;10376640;28;20455;-71
